createdAt,value
2023-09-27T00:00:47.710Z,90.51
2023-09-27T00:03:14.321Z,90.46
2023-09-27T00:05:41.110Z,90.34
2023-09-27T00:08:07.774Z,90.16
2023-09-27T00:10:34.598Z,90.11
2023-09-27T00:13:01.118Z,90.10
2023-09-27T00:15:27.561Z,90.07
2023-09-27T00:17:55.309Z,90.21
2023-09-27T00:20:22.987Z,90.24
2023-09-27T00:22:49.864Z,90.76
2023-09-27T00:25:16.467Z,90.68
2023-09-27T00:27:43.254Z,90.55
2023-09-27T00:30:14.456Z,90.66
2023-09-27T00:32:42.126Z,90.77
2023-09-27T00:35:15.878Z,90.53
2023-09-27T00:37:42.569Z,90.21
2023-09-27T00:40:13.082Z,90.27
2023-09-27T00:42:39.896Z,90.18
2023-09-27T00:45:07.886Z,90.26
2023-09-27T00:47:34.892Z,90.49
2023-09-27T00:50:01.529Z,90.54
2023-09-27T00:52:28.401Z,90.58
2023-09-27T00:54:55.209Z,90.43
2023-09-27T00:57:23.195Z,90.34
2023-09-27T00:59:50.887Z,90.32
2023-09-27T01:02:17.968Z,89.93
2023-09-27T01:04:44.832Z,90.22
2023-09-27T01:07:11.378Z,90.16
2023-09-27T01:09:38.772Z,89.97
2023-09-27T01:12:06.042Z,90.12
2023-09-27T01:14:32.571Z,90.11
2023-09-27T01:17:11.625Z,90.24
2023-09-27T01:19:39.878Z,89.98
2023-09-27T01:22:06.403Z,89.98
2023-09-27T01:24:36.526Z,90.26
2023-09-27T01:27:05.734Z,90.39
2023-09-27T01:29:32.188Z,90.40
2023-09-27T01:31:58.679Z,90.64
2023-09-27T01:34:25.169Z,90.38
2023-09-27T01:36:52.340Z,90.12
2023-09-27T01:39:19.558Z,90.16
2023-09-27T01:41:46.080Z,90.15
2023-09-27T01:44:13.050Z,90.24
2023-09-27T01:46:39.850Z,90.23
2023-09-27T01:49:06.288Z,90.38
2023-09-27T01:51:32.699Z,90.41
2023-09-27T01:53:59.411Z,90.51
2023-09-27T01:56:25.887Z,90.67
2023-09-27T01:58:52.644Z,90.56
2023-09-27T02:01:19.248Z,90.45
2023-09-27T02:03:45.914Z,90.38
2023-09-27T02:06:12.670Z,90.51
2023-09-27T02:08:39.155Z,90.45
2023-09-27T02:11:05.590Z,90.57
2023-09-27T02:13:32.125Z,90.41
2023-09-27T02:15:58.670Z,90.11
2023-09-27T02:18:25.252Z,90.26
2023-09-27T02:20:51.956Z,90.24
2023-09-27T02:23:19.060Z,90.20
2023-09-27T02:25:45.484Z,89.93
2023-09-27T02:28:11.945Z,90.30
2023-09-27T02:30:39.330Z,90.26
2023-09-27T02:33:05.813Z,90.42
2023-09-27T02:35:32.386Z,90.35
2023-09-27T02:37:58.958Z,90.16
2023-09-27T02:40:25.468Z,90.15
2023-09-27T02:42:51.961Z,90.49
2023-09-27T02:45:18.568Z,90.60
2023-09-27T02:47:45.685Z,90.70
2023-09-27T02:50:13.098Z,90.36
2023-09-27T02:52:40.075Z,90.32
2023-09-27T02:55:09.995Z,90.14
2023-09-27T02:57:37.323Z,90.26
2023-09-27T03:00:04.875Z,90.32
2023-09-27T03:02:34.853Z,90.46
2023-09-27T03:05:04.249Z,90.43
2023-09-27T03:07:30.740Z,90.12
2023-09-27T03:09:59.748Z,90.13
2023-09-27T03:12:26.240Z,90.48
2023-09-27T03:14:52.740Z,90.56
2023-09-27T03:17:19.204Z,90.64
2023-09-27T03:19:47.744Z,90.59
2023-09-27T03:22:14.281Z,90.53
2023-09-27T03:24:40.702Z,90.29
2023-09-27T03:27:09.693Z,90.09
2023-09-27T03:29:36.667Z,90.43
2023-09-27T03:32:03.557Z,90.27
2023-09-27T03:34:32.626Z,90.37
2023-09-27T03:36:59.110Z,90.20
2023-09-27T03:39:26.382Z,90.82
2023-09-27T03:41:52.721Z,90.29
2023-09-27T03:44:19.223Z,90.33
2023-09-27T03:46:45.821Z,90.63
2023-09-27T03:49:14.047Z,90.60
2023-09-27T03:51:40.522Z,90.14
2023-09-27T03:54:07.258Z,90.39
2023-09-27T03:56:33.818Z,90.34
2023-09-27T03:59:00.386Z,90.46
2023-09-27T04:01:27.288Z,90.43
2023-09-27T04:03:53.795Z,90.29
2023-09-27T04:06:21.106Z,90.37
2023-09-27T04:08:47.487Z,90.17
2023-09-27T04:11:14.005Z,90.35
2023-09-27T04:13:41.099Z,90.31
2023-09-27T04:16:07.574Z,90.43
2023-09-27T04:18:34.126Z,90.53
2023-09-27T04:21:09.736Z,90.15
2023-09-27T04:23:37.479Z,90.24
2023-09-27T04:26:07.636Z,90.24
2023-09-27T04:28:34.938Z,90.40
2023-09-27T04:31:01.616Z,90.28
2023-09-27T04:33:28.118Z,90.27
2023-09-27T04:35:54.642Z,90.18
2023-09-27T04:38:21.106Z,90.53
2023-09-27T04:40:47.928Z,90.65
2023-09-27T04:43:14.416Z,90.77
2023-09-27T04:45:40.991Z,90.54
2023-09-27T04:48:07.515Z,90.74
2023-09-27T04:50:35.191Z,90.58
2023-09-27T04:53:01.735Z,90.84
2023-09-27T04:55:29.055Z,90.65
2023-09-27T04:57:55.450Z,90.51
2023-09-27T05:00:23.180Z,91.32
2023-09-27T05:02:51.307Z,91.34
2023-09-27T05:05:18.031Z,91.35
2023-09-27T05:07:44.707Z,91.11
2023-09-27T05:10:11.294Z,91.22
2023-09-27T05:12:38.239Z,91.34
2023-09-27T05:15:05.260Z,91.08
2023-09-27T05:17:31.719Z,91.22
2023-09-27T05:19:58.842Z,91.12
2023-09-27T05:22:25.334Z,91.34
2023-09-27T05:24:51.878Z,91.47
2023-09-27T05:27:18.545Z,91.21
2023-09-27T05:29:46.238Z,91.38
2023-09-27T05:32:13.609Z,91.39
2023-09-27T05:34:40.079Z,91.30
2023-09-27T05:37:06.572Z,91.67
2023-09-27T05:39:33.254Z,91.95
2023-09-27T05:41:59.731Z,91.83
2023-09-27T05:44:26.278Z,91.86
2023-09-27T05:46:52.895Z,92.06
2023-09-27T05:49:19.880Z,91.96
2023-09-27T05:51:46.615Z,92.27
2023-09-27T05:54:13.150Z,92.20
2023-09-27T05:56:39.692Z,92.25
2023-09-27T05:59:12.692Z,92.21
2023-09-27T06:01:40.403Z,92.66
2023-09-27T06:04:07.933Z,92.88
2023-09-27T06:06:35.600Z,92.62
2023-09-27T06:09:02.034Z,92.61
2023-09-27T06:11:28.468Z,92.83
2023-09-27T06:13:55.494Z,92.65
2023-09-27T06:16:22.835Z,92.98
2023-09-27T06:18:49.338Z,93.15
2023-09-27T06:21:15.774Z,93.57
2023-09-27T06:23:42.512Z,93.36
2023-09-27T06:26:10.340Z,93.60
2023-09-27T06:28:40.426Z,93.34
2023-09-27T06:31:07.391Z,93.36
2023-09-27T06:33:40.414Z,93.34
2023-09-27T06:36:08.945Z,93.47
2023-09-27T06:38:35.629Z,93.55
2023-09-27T06:41:02.393Z,93.93
2023-09-27T06:43:31.135Z,93.87
2023-09-27T06:45:57.616Z,94.28
2023-09-27T06:48:27.374Z,94.35
2023-09-27T06:50:53.946Z,94.48
2023-09-27T06:53:24.107Z,94.48
2023-09-27T06:55:54.715Z,94.41
2023-09-27T06:58:26.821Z,94.58
2023-09-27T07:00:53.785Z,94.52
2023-09-27T07:03:25.888Z,94.71
2023-09-27T07:05:53.057Z,94.74
2023-09-27T07:08:19.670Z,94.55
2023-09-27T07:10:46.314Z,94.59
2023-09-27T07:13:12.733Z,94.57
2023-09-27T07:15:39.395Z,94.72
2023-09-27T07:18:07.193Z,94.74
2023-09-27T07:20:37.942Z,94.77
2023-09-27T07:23:08.831Z,94.69
2023-09-27T07:25:39.281Z,94.90
2023-09-27T07:28:07.077Z,95.05
2023-09-27T07:30:34.886Z,94.62
2023-09-27T07:33:04.905Z,94.72
2023-09-27T07:35:34.571Z,94.86
2023-09-27T07:38:02.171Z,94.95
2023-09-27T07:40:28.798Z,94.99
2023-09-27T07:42:55.360Z,94.76
2023-09-27T07:45:29.475Z,95.23
2023-09-27T07:47:56.937Z,95.02
2023-09-27T07:50:43.537Z,95.20
2023-09-27T07:53:10.126Z,95.58
2023-09-27T07:55:52.005Z,95.01
2023-09-27T07:58:18.692Z,95.18
2023-09-27T08:00:45.459Z,94.79
2023-09-27T08:03:15.719Z,94.97
2023-09-27T08:05:46.207Z,94.83
2023-09-27T08:08:14.809Z,94.77
2023-09-27T08:10:44.552Z,94.43
2023-09-27T08:13:16.243Z,94.06
2023-09-27T08:15:43.908Z,94.68
2023-09-27T08:18:10.469Z,94.14
2023-09-27T08:20:37.161Z,94.68
2023-09-27T08:23:04.306Z,94.71
2023-09-27T08:25:30.972Z,94.63
2023-09-27T08:27:57.610Z,94.15
2023-09-27T08:30:24.116Z,94.07
2023-09-27T08:32:52.588Z,94.19
2023-09-27T08:35:19.624Z,94.38
2023-09-27T08:37:46.359Z,93.66
2023-09-27T08:40:16.304Z,93.54
2023-09-27T08:42:44.049Z,93.32
2023-09-27T08:45:15.127Z,93.02
2023-09-27T08:47:44.859Z,93.04
2023-09-27T08:50:15.187Z,92.76
2023-09-27T08:52:50.312Z,92.34
2023-09-27T08:55:18.046Z,93.03
2023-09-27T08:57:52.839Z,93.34
2023-09-27T09:00:22.985Z,93.42
2023-09-27T09:02:53.595Z,92.80
2023-09-27T09:05:22.029Z,93.62
2023-09-27T09:07:48.617Z,92.86
2023-09-27T09:10:16.680Z,92.96
2023-09-27T09:12:44.616Z,93.55
2023-09-27T09:15:16.336Z,92.70
2023-09-27T09:17:49.497Z,91.70
2023-09-27T09:20:24.477Z,91.96
2023-09-27T09:22:55.843Z,91.88
2023-09-27T09:25:24.272Z,91.86
2023-09-27T09:28:04.170Z,91.65
2023-09-27T09:30:38.762Z,92.14
2023-09-27T09:33:17.953Z,91.31
2023-09-27T09:35:44.696Z,90.47
2023-09-27T09:38:11.198Z,89.87
2023-09-27T09:40:59.296Z,90.47
2023-09-27T09:43:34.877Z,90.72
2023-09-27T09:46:04.832Z,90.55
2023-09-27T09:48:34.625Z,90.63
2023-09-27T09:51:08.834Z,89.25
2023-09-27T09:53:42.549Z,89.09
2023-09-27T09:58:48.814Z,90.87
2023-09-27T10:01:22.481Z,89.26
2023-09-27T10:03:52.795Z,89.69
2023-09-27T10:06:40.905Z,89.46
2023-09-27T10:09:15.198Z,88.55
2023-09-27T10:11:44.253Z,88.97
2023-09-27T10:14:11.900Z,87.21
2023-09-27T10:16:38.971Z,87.88
2023-09-27T10:19:06.632Z,88.59
2023-09-27T10:21:33.392Z,88.93
2023-09-27T10:24:02.432Z,88.94
2023-09-27T10:26:29.689Z,87.98
2023-09-27T10:29:02.097Z,88.67
2023-09-27T10:31:29.582Z,88.49
2023-09-27T10:33:56.309Z,89.39
2023-09-27T10:36:22.677Z,88.32
2023-09-27T10:38:55.291Z,88.14
2023-09-27T10:41:34.275Z,88.17
2023-09-27T10:44:04.261Z,86.27
2023-09-27T10:46:48.804Z,84.96
2023-09-27T10:49:38.280Z,86.31
2023-09-27T10:52:27.631Z,86.46
2023-09-27T10:54:54.086Z,85.86
2023-09-27T10:57:22.591Z,82.39
2023-09-27T10:59:50.798Z,81.23
2023-09-27T11:02:31.454Z,82.21
2023-09-27T11:04:57.936Z,81.72
2023-09-27T11:07:42.565Z,81.32
2023-09-27T11:10:09.103Z,81.69
2023-09-27T11:12:35.648Z,82.80
2023-09-27T11:15:02.584Z,83.51
2023-09-27T11:17:29.980Z,84.68
2023-09-27T11:19:56.718Z,79.33
2023-09-27T11:22:29.898Z,80.26
2023-09-27T11:24:57.021Z,80.70
2023-09-27T11:27:24.050Z,78.33
2023-09-27T11:29:56.653Z,76.83
2023-09-27T11:32:23.486Z,76.43
2023-09-27T11:34:56.744Z,77.24
2023-09-27T11:37:24.413Z,74.45
2023-09-27T11:39:56.164Z,75.19
2023-09-27T11:42:24.264Z,74.34
2023-09-27T11:45:13.762Z,73.54
2023-09-27T11:47:47.448Z,70.48
2023-09-27T11:50:18.865Z,67.53
2023-09-27T11:52:48.122Z,69.51
2023-09-27T11:55:15.642Z,66.63
2023-09-27T11:57:42.499Z,68.26
2023-09-27T12:00:09.979Z,70.61
2023-09-27T12:02:43.739Z,68.74
2023-09-27T12:05:19.650Z,67.83
2023-09-27T12:07:48.373Z,67.66
2023-09-27T12:10:14.893Z,67.64
2023-09-27T12:12:41.320Z,67.39
2023-09-27T12:15:08.301Z,67.33
2023-09-27T12:17:34.927Z,66.51
2023-09-27T12:20:01.454Z,67.40
2023-09-27T12:22:29.518Z,69.71
2023-09-27T12:24:56.075Z,66.97
2023-09-27T12:27:22.522Z,64.95
2023-09-27T12:29:49.716Z,67.05
2023-09-27T12:32:16.814Z,65.04
2023-09-27T12:34:43.321Z,65.73
2023-09-27T12:37:09.741Z,66.79
2023-09-27T12:39:38.684Z,65.19
2023-09-27T12:42:05.307Z,66.93
2023-09-27T12:44:32.902Z,67.44
2023-09-27T12:46:59.383Z,66.28
2023-09-27T12:49:26.575Z,65.59
2023-09-27T12:51:53.320Z,64.89
2023-09-27T12:54:20.446Z,68.31
2023-09-27T12:56:46.989Z,65.11
2023-09-27T12:59:13.535Z,68.17
2023-09-27T13:01:41.022Z,67.93
2023-09-27T13:04:08.285Z,66.89
2023-09-27T13:06:35.062Z,68.38
2023-09-27T13:09:04.121Z,67.98
2023-09-27T13:11:30.668Z,67.35
2023-09-27T13:13:57.096Z,68.18
2023-09-27T13:16:23.548Z,67.64
2023-09-27T13:18:53.380Z,67.59
2023-09-27T13:21:21.296Z,68.64
2023-09-27T13:23:47.724Z,69.35
2023-09-27T13:26:14.587Z,69.13
2023-09-27T13:28:40.984Z,69.52
2023-09-27T13:31:07.481Z,69.58
2023-09-27T13:33:34.250Z,68.36
2023-09-27T13:36:01.059Z,66.20
2023-09-27T13:38:27.900Z,67.57
2023-09-27T13:40:54.576Z,66.80
2023-09-27T13:43:21.426Z,66.71
2023-09-27T13:45:48.357Z,67.65
2023-09-27T13:48:15.149Z,68.12
2023-09-27T13:50:41.759Z,68.07
2023-09-27T13:53:08.323Z,68.19
2023-09-27T13:55:34.993Z,69.63
2023-09-27T13:58:01.466Z,68.17
2023-09-27T14:00:28.001Z,69.22
2023-09-27T14:02:54.889Z,69.84
2023-09-27T14:05:21.480Z,68.31
2023-09-27T14:07:48.039Z,68.91
2023-09-27T14:10:14.494Z,69.88
2023-09-27T14:12:41.916Z,69.92
2023-09-27T14:15:09.823Z,69.26
2023-09-27T14:17:36.706Z,70.00
2023-09-27T14:20:03.624Z,70.24
2023-09-27T14:22:30.774Z,70.22
2023-09-27T14:24:57.268Z,68.41
2023-09-27T14:27:23.747Z,68.09
2023-09-27T14:29:50.223Z,69.28
2023-09-27T14:32:17.997Z,69.30
2023-09-27T14:37:23.479Z,70.54
2023-09-27T14:39:49.961Z,71.88
2023-09-27T14:42:17.172Z,70.64
2023-09-27T14:44:43.786Z,68.68
2023-09-27T14:47:10.288Z,71.57
2023-09-27T14:49:36.777Z,73.49
2023-09-27T14:52:03.241Z,71.44
2023-09-27T14:54:29.619Z,71.64
2023-09-27T14:56:58.367Z,71.36
2023-09-27T14:59:24.838Z,73.95
2023-09-27T15:01:54.148Z,71.57
2023-09-27T15:04:20.848Z,71.49
2023-09-27T15:06:47.361Z,71.71
2023-09-27T15:09:13.812Z,72.60
2023-09-27T15:11:40.228Z,73.74
2023-09-27T15:14:06.646Z,74.23
2023-09-27T15:16:35.003Z,73.49
2023-09-27T15:19:01.688Z,74.51
2023-09-27T15:21:28.152Z,75.27
2023-09-27T15:23:54.698Z,75.69
2023-09-27T15:26:22.576Z,75.04
2023-09-27T15:28:49.167Z,75.94
2023-09-27T15:31:15.807Z,74.34
2023-09-27T15:33:42.283Z,75.40
2023-09-27T15:36:09.190Z,76.64
2023-09-27T15:38:35.767Z,77.23
2023-09-27T15:41:02.228Z,77.07
2023-09-27T15:43:30.556Z,76.60
2023-09-27T15:46:04.433Z,77.48
2023-09-27T15:48:34.864Z,78.43
2023-09-27T15:51:06.475Z,78.47
2023-09-27T15:53:33.662Z,78.18
2023-09-27T15:56:01.100Z,78.40
2023-09-27T15:58:27.912Z,76.35
2023-09-27T16:00:54.613Z,77.60
2023-09-27T16:03:21.764Z,78.53
2023-09-27T16:05:49.774Z,78.06
2023-09-27T16:08:19.984Z,78.31
2023-09-27T16:10:54.709Z,78.47
2023-09-27T16:13:23.185Z,79.66
2023-09-27T16:15:51.551Z,77.45
2023-09-27T16:18:19.737Z,77.52
2023-09-27T16:20:47.780Z,78.92
2023-09-27T16:23:15.305Z,78.58
2023-09-27T16:25:42.343Z,79.50
2023-09-27T16:28:08.961Z,78.64
2023-09-27T16:30:36.258Z,79.49
2023-09-27T16:33:05.649Z,80.78
2023-09-27T16:35:38.280Z,78.00
2023-09-27T16:38:05.018Z,79.66
2023-09-27T16:40:31.883Z,79.14
2023-09-27T16:42:58.911Z,78.43
2023-09-27T16:45:25.426Z,77.86
2023-09-27T16:47:52.027Z,77.10
2023-09-27T16:50:18.501Z,76.30
2023-09-27T16:52:44.996Z,77.73
2023-09-27T16:55:12.296Z,77.94
2023-09-27T16:57:39.789Z,78.25
2023-09-27T17:00:11.448Z,77.56
2023-09-27T17:02:39.056Z,76.76
2023-09-27T17:05:06.754Z,78.19
2023-09-27T17:07:36.070Z,78.95
2023-09-27T17:10:04.751Z,78.29
2023-09-27T17:12:31.372Z,78.49
2023-09-27T17:14:57.896Z,77.99
2023-09-27T17:17:24.389Z,78.21
2023-09-27T17:19:50.926Z,78.86
2023-09-27T17:22:17.537Z,78.64
2023-09-27T17:24:44.082Z,78.98
2023-09-27T17:27:10.682Z,78.81
2023-09-27T17:29:37.118Z,78.21
2023-09-27T17:32:03.654Z,79.83
2023-09-27T17:34:30.554Z,79.09
2023-09-27T17:36:57.121Z,80.38
2023-09-27T17:39:24.105Z,79.27
2023-09-27T17:41:51.067Z,79.10
2023-09-27T17:44:17.460Z,80.47
2023-09-27T17:46:43.894Z,80.87
2023-09-27T17:49:10.418Z,79.11
2023-09-27T17:51:37.983Z,80.29
2023-09-27T17:54:07.015Z,80.20
2023-09-27T17:56:34.223Z,81.25
2023-09-27T17:59:00.632Z,81.78
2023-09-27T18:01:27.333Z,81.22
2023-09-27T18:03:54.184Z,80.93
2023-09-27T18:06:21.084Z,81.15
2023-09-27T18:08:47.539Z,80.52
2023-09-27T18:11:15.807Z,81.30
2023-09-27T18:13:43.411Z,80.69
2023-09-27T18:16:14.511Z,81.25
2023-09-27T18:18:40.939Z,81.58
2023-09-27T18:21:07.389Z,82.14
2023-09-27T18:23:33.851Z,81.91
2023-09-27T18:26:00.296Z,81.94
2023-09-27T18:28:26.776Z,81.25
2023-09-27T18:30:53.281Z,82.08
2023-09-27T18:33:19.684Z,82.14
2023-09-27T18:35:46.163Z,82.23
2023-09-27T18:38:12.643Z,83.41
2023-09-27T18:40:39.149Z,82.89
2023-09-27T18:43:05.583Z,82.98
2023-09-27T18:45:32.087Z,83.00
2023-09-27T18:47:58.734Z,83.26
2023-09-27T18:50:25.437Z,83.79
2023-09-27T18:52:51.977Z,83.90
2023-09-27T18:55:18.472Z,83.51
2023-09-27T18:57:45.044Z,83.99
2023-09-27T19:00:12.640Z,84.12
2023-09-27T19:02:39.265Z,84.40
2023-09-27T19:05:06.726Z,83.51
2023-09-27T19:07:33.826Z,84.41
2023-09-27T19:10:00.265Z,83.83
2023-09-27T19:12:26.697Z,83.98
2023-09-27T19:14:53.249Z,84.22
2023-09-27T19:17:19.730Z,83.96
2023-09-27T19:19:46.188Z,83.68
2023-09-27T19:22:12.692Z,83.77
2023-09-27T19:24:39.397Z,83.76
2023-09-27T19:27:05.917Z,83.81
2023-09-27T19:29:33.322Z,84.13
2023-09-27T19:31:59.870Z,84.20
2023-09-27T19:34:26.491Z,83.93
2023-09-27T19:36:53.038Z,84.22
2023-09-27T19:39:19.647Z,83.68
2023-09-27T19:41:46.792Z,84.34
2023-09-27T19:44:13.391Z,83.66
2023-09-27T19:46:39.953Z,84.46
2023-09-27T19:49:06.547Z,84.65
2023-09-27T19:51:33.177Z,84.16
2023-09-27T19:54:01.700Z,84.41
2023-09-27T19:56:28.320Z,84.72
2023-09-27T19:58:54.882Z,84.81
2023-09-27T20:01:32.996Z,84.44
2023-09-27T20:03:59.887Z,84.28
2023-09-27T20:06:26.704Z,84.65
2023-09-27T20:08:53.200Z,85.02
2023-09-27T20:11:20.758Z,84.24
2023-09-27T20:13:47.956Z,85.20
2023-09-27T20:16:15.404Z,85.22
2023-09-27T20:18:41.908Z,84.85
2023-09-27T20:21:08.354Z,84.63
2023-09-27T20:23:34.989Z,84.44
2023-09-27T20:26:02.691Z,85.16
2023-09-27T20:28:29.299Z,84.88
2023-09-27T20:30:56.086Z,85.18
2023-09-27T20:33:22.741Z,85.13
2023-09-27T20:35:49.406Z,85.61
2023-09-27T20:38:16.098Z,85.50
2023-09-27T20:40:42.842Z,85.05
2023-09-27T20:43:09.391Z,85.51
2023-09-27T20:45:36.089Z,85.37
2023-09-27T20:48:02.885Z,84.91
2023-09-27T20:50:29.507Z,84.92
2023-09-27T20:52:56.065Z,84.87
2023-09-27T20:55:22.680Z,85.01
2023-09-27T20:57:51.537Z,85.05
2023-09-27T21:00:20.543Z,84.65
2023-09-27T21:02:47.078Z,84.02
2023-09-27T21:05:13.726Z,83.81
2023-09-27T21:07:40.299Z,83.77
2023-09-27T21:10:07.722Z,83.11
2023-09-27T21:12:34.565Z,83.17
2023-09-27T21:15:02.149Z,83.46
2023-09-27T21:17:28.991Z,83.38
2023-09-27T21:19:55.637Z,83.22
2023-09-27T21:22:22.154Z,83.17
2023-09-27T21:24:48.632Z,82.90
2023-09-27T21:27:15.174Z,83.26
2023-09-27T21:29:41.988Z,82.97
2023-09-27T21:32:08.527Z,82.80
2023-09-27T21:34:35.075Z,83.09
2023-09-27T21:37:01.531Z,83.42
2023-09-27T21:39:27.997Z,82.53
2023-09-27T21:41:54.671Z,82.83
2023-09-27T21:44:24.064Z,82.75
2023-09-27T21:46:54.091Z,82.57
2023-09-27T21:49:21.458Z,82.58
2023-09-27T21:51:48.954Z,82.41
2023-09-27T21:54:15.847Z,82.63
2023-09-27T21:56:43.651Z,82.29
2023-09-27T21:59:10.146Z,81.97
2023-09-27T22:01:37.916Z,81.76
2023-09-27T22:04:04.611Z,81.86
2023-09-27T22:06:31.136Z,80.80
2023-09-27T22:08:58.337Z,81.76
2023-09-27T22:11:25.603Z,81.44
2023-09-27T22:13:52.520Z,81.20
2023-09-27T22:16:22.732Z,80.88
2023-09-27T22:18:49.921Z,80.56
2023-09-27T22:21:28.034Z,80.76
2023-09-27T22:23:57.429Z,80.22
2023-09-27T22:26:26.204Z,81.22
2023-09-27T22:28:56.546Z,80.26
2023-09-27T22:31:32.150Z,80.57
2023-09-27T22:34:05.703Z,80.28
2023-09-27T22:36:32.809Z,80.20
2023-09-27T22:39:09.858Z,80.31
2023-09-27T22:41:40.698Z,80.22
2023-09-27T22:44:19.980Z,81.49
2023-09-27T22:46:51.568Z,81.00
2023-09-27T22:49:22.925Z,80.49
2023-09-27T22:51:50.258Z,80.64
2023-09-27T22:54:18.948Z,79.93
2023-09-27T22:56:47.190Z,80.56
2023-09-27T22:59:14.605Z,80.00
2023-09-27T23:01:43.783Z,79.93
2023-09-27T23:04:15.724Z,79.81
2023-09-27T23:07:01.638Z,80.09
2023-09-27T23:09:35.262Z,79.93
2023-09-27T23:12:20.710Z,79.69
2023-09-27T23:15:06.635Z,79.84
2023-09-27T23:17:56.397Z,79.78
2023-09-27T23:20:29.763Z,79.08
2023-09-27T23:22:58.636Z,79.87
2023-09-27T23:25:44.195Z,79.64
2023-09-27T23:28:40.140Z,79.77
2023-09-27T23:31:10.897Z,79.82
2023-09-27T23:33:44.552Z,79.55
2023-09-27T23:36:26.714Z,79.73
2023-09-27T23:38:57.305Z,79.65
2023-09-27T23:41:31.732Z,80.50
2023-09-27T23:44:02.203Z,79.61
2023-09-27T23:46:28.973Z,80.28
2023-09-27T23:48:55.518Z,80.48
2023-09-27T23:51:25.393Z,80.45
2023-09-27T23:53:53.127Z,80.83
2023-09-27T23:56:23.844Z,80.41
2023-09-27T23:58:53.174Z,80.69
